Time;durP1;ratioP1;P1;durP2;ratioP2;P2;SDS_P1;SDS_P2;PMS_P1;PMS_P2;Temp;Humidity;BMP_temperature;BMP_pressure;BME280_temperature;BME280_humidity;BME280_pressure;Samples;Min_cycle;Max_cycle;Signal;HPM_P1;HPM_P2
2022/06/07 00:02:03;;;;;;;4.22;0.90;;;18.50;99.90;;;;;;5090688;28;20111;-73
2022/06/07 00:04:28;;;;;;;1.30;0.85;;;18.50;99.90;;;;;;5092919;28;20483;-73
2022/06/07 00:06:54;;;;;;;1.63;0.90;;;18.40;99.90;;;;;;5090858;28;20024;-73
2022/06/07 00:09:20;;;;;;;1.10;0.70;;;18.30;99.90;;;;;;5092567;28;20369;-72
2022/06/07 00:11:46;;;;;;;4.38;0.90;;;18.30;99.90;;;;;;5092563;28;20059;-72
2022/06/07 00:14:12;;;;;;;3.97;1.05;;;18.30;99.90;;;;;;5090246;28;20184;-72
2022/06/07 00:16:37;;;;;;;1.55;0.88;;;18.30;99.90;;;;;;5091076;28;20537;-72
2022/06/07 00:19:03;;;;;;;2.15;1.02;;;18.30;99.90;;;;;;5090569;28;20028;-72
2022/06/07 00:21:29;;;;;;;1.20;1.00;;;18.20;99.90;;;;;;5108039;28;20028;-72
2022/06/07 00:23:55;;;;;;;1.45;0.90;;;18.20;99.90;;;;;;5091856;28;20032;-72
2022/06/07 00:26:22;;;;;;;4.90;1.83;;;18.20;99.90;;;;;;5108392;28;20036;-72
2022/06/07 00:28:48;;;;;;;1.58;0.95;;;18.10;99.90;;;;;;5091071;28;20043;-72
2022/06/07 00:31:15;;;;;;;1.98;0.93;;;18.10;99.90;;;;;;5090549;28;20453;-72
2022/06/07 00:33:40;;;;;;;4.25;1.20;;;18.10;99.90;;;;;;5091280;28;20035;-72
2022/06/07 00:36:08;;;;;;;5.28;1.20;;;18.10;99.90;;;;;;5091668;28;20032;-72
2022/06/07 00:38:34;;;;;;;2.10;1.20;;;18.10;99.90;;;;;;5095851;28;20526;-72
2022/06/07 00:41:00;;;;;;;2.70;1.17;;;18.00;99.90;;;;;;5094365;28;20135;-72
2022/06/07 00:43:26;;;;;;;1.80;1.10;;;18.00;99.90;;;;;;5094862;28;20031;-72
2022/06/07 00:45:52;;;;;;;3.10;1.23;;;18.00;99.90;;;;;;5095762;28;20069;-73
2022/06/07 00:48:19;;;;;;;1.95;1.10;;;18.00;99.90;;;;;;5094219;28;20078;-72
2022/06/07 00:51:19;;;;;;;2.28;1.10;;;17.90;99.90;;;;;;5094780;28;20027;-72
2022/06/07 00:53:45;;;;;;;1.65;1.17;;;17.80;99.90;;;;;;5094487;28;20055;-72
2022/06/07 00:56:11;;;;;;;2.88;1.25;;;17.80;99.90;;;;;;5110858;28;20473;-73
2022/06/07 00:58:39;;;;;;;4.47;1.15;;;17.70;99.90;;;;;;5111403;28;20434;-73
2022/06/07 01:01:04;;;;;;;2.72;1.23;;;17.70;99.90;;;;;;5095227;28;20077;-73
2022/06/07 01:03:30;;;;;;;4.10;0.90;;;17.70;99.90;;;;;;5111390;28;20031;-72
2022/06/07 01:10:43;;;;;;;1.90;1.20;;;17.60;99.90;;;;;;5093871;28;20024;-72
2022/06/07 01:11:25;;;;;;;3.25;0.95;;;17.50;99.90;;;;;;5095485;28;20035;-74
2022/06/07 01:13:51;;;;;;;2.53;1.20;;;17.50;99.90;;;;;;5093867;28;20127;-74
2022/06/07 01:16:17;;;;;;;1.23;1.10;;;17.40;99.90;;;;;;5094906;28;20032;-75
2022/06/07 01:18:42;;;;;;;1.13;1.00;;;17.30;99.90;;;;;;5095432;28;20384;-75
2022/06/07 01:21:28;;;;;;;3.33;1.30;;;17.30;99.90;;;;;;5110564;28;20449;-75
2022/06/07 01:23:53;;;;;;;2.67;1.00;;;17.30;99.90;;;;;;5095147;28;20103;-75
2022/06/07 01:26:19;;;;;;;1.40;0.80;;;17.20;99.90;;;;;;5094758;28;20106;-74
2022/06/07 01:28:45;;;;;;;3.03;1.20;;;17.20;99.90;;;;;;5110982;28;20024;-74
2022/06/07 01:31:10;;;;;;;0.95;0.85;;;17.20;99.90;;;;;;5110402;28;20085;-75
2022/06/07 01:33:36;;;;;;;1.33;0.82;;;17.20;99.90;;;;;;5110927;28;20461;-75
2022/06/07 01:36:11;;;;;;;1.63;0.80;;;17.10;99.90;;;;;;5094247;28;20374;-75
2022/06/07 01:38:39;;;;;;;1.00;0.90;;;17.10;99.90;;;;;;5093737;28;20414;-74
2022/06/07 01:43:51;;;;;;;4.25;1.10;;;17.10;99.90;;;;;;5094827;28;20088;-74
2022/06/07 01:46:18;;;;;;;2.10;0.65;;;17.10;99.90;;;;;;5094457;28;20036;-74
2022/06/07 01:48:45;;;;;;;2.03;0.95;;;17.00;99.90;;;;;;5094022;28;20024;-73
2022/06/07 01:51:11;;;;;;;1.95;0.88;;;17.00;99.90;;;;;;5093039;28;20426;-74
2022/06/07 01:53:38;;;;;;;1.20;0.80;;;17.00;99.90;;;;;;5093619;28;20024;-74
2022/06/07 01:56:05;;;;;;;3.42;1.00;;;17.00;99.90;;;;;;5092842;28;20059;-74
2022/06/07 01:58:31;;;;;;;1.52;0.70;;;17.00;99.90;;;;;;5093400;28;20032;-74
2022/06/07 02:00:57;;;;;;;2.47;0.85;;;17.00;99.90;;;;;;5094582;28;20047;-73
2022/06/07 02:03:22;;;;;;;3.53;0.98;;;17.00;99.90;;;;;;5092784;28;20051;-73
2022/06/07 02:06:02;;;;;;;2.15;0.70;;;16.90;99.90;;;;;;5093109;28;20028;-73
2022/06/07 02:08:28;;;;;;;3.65;0.80;;;16.90;99.90;;;;;;5094553;28;20051;-73
2022/06/07 02:10:55;;;;;;;4.13;0.82;;;16.90;99.90;;;;;;5093081;28;20027;-73
2022/06/07 02:13:22;;;;;;;2.13;0.80;;;17.00;99.90;;;;;;5092260;28;20075;-73
2022/06/07 02:15:49;;;;;;;3.00;0.82;;;17.00;99.90;;;;;;5092614;28;20035;-73
2022/06/07 02:18:15;;;;;;;1.67;0.80;;;17.00;99.90;;;;;;5109467;28;20370;-73
2022/06/07 02:20:41;;;;;;;3.10;0.80;;;17.00;99.90;;;;;;5094339;28;20489;-72
2022/06/07 02:23:08;;;;;;;4.28;0.90;;;17.00;99.90;;;;;;5093586;28;20461;-73
2022/06/07 02:25:49;;;;;;;1.65;0.80;;;17.00;99.90;;;;;;5094103;28;20031;-73
2022/06/07 02:28:16;;;;;;;2.17;0.90;;;17.00;99.90;;;;;;5093686;28;20043;-73
2022/06/07 02:30:44;;;;;;;1.55;0.60;;;17.00;99.90;;;;;;5094066;28;20154;-73
2022/06/07 02:33:11;;;;;;;1.83;0.70;;;17.00;99.90;;;;;;5093405;28;20155;-73
2022/06/07 02:35:39;;;;;;;1.90;1.13;;;17.00;99.90;;;;;;5093979;28;20493;-73
2022/06/07 02:38:06;;;;;;;2.00;0.60;;;17.10;99.90;;;;;;5109236;28;20028;-74
2022/06/07 02:40:32;;;;;;;1.50;1.00;;;17.10;99.90;;;;;;5092382;28;20020;-74
2022/06/07 02:42:58;;;;;;;0.88;0.68;;;17.00;99.90;;;;;;5109239;28;20024;-73
2022/06/07 02:45:24;;;;;;;1.65;0.70;;;17.00;99.90;;;;;;5092027;28;20027;-74
2022/06/07 02:47:50;;;;;;;0.60;0.60;;;17.00;99.90;;;;;;5092684;28;20050;-74
2022/06/07 02:50:16;;;;;;;0.90;0.70;;;17.00;99.90;;;;;;5093218;28;20373;-74
2022/06/07 02:52:41;;;;;;;1.33;0.80;;;17.00;99.90;;;;;;5093354;28;20060;-74
2022/06/07 02:55:08;;;;;;;0.60;0.60;;;17.00;99.90;;;;;;5091985;28;20036;-74
2022/06/07 02:57:33;;;;;;;1.65;0.70;;;17.00;99.90;;;;;;5092265;28;20431;-73
2022/06/07 02:59:59;;;;;;;1.88;0.73;;;17.00;99.90;;;;;;5108901;28;20028;-73
2022/06/07 03:02:25;;;;;;;5.05;2.13;;;17.00;99.90;;;;;;5091685;28;20477;-73
2022/06/07 03:04:50;;;;;;;1.95;1.00;;;17.00;99.90;;;;;;5092240;28;20031;-73
2022/06/07 03:07:16;;;;;;;2.42;0.80;;;17.00;99.90;;;;;;5092610;28;20106;-73
2022/06/07 03:09:41;;;;;;;2.67;0.77;;;17.00;99.90;;;;;;5092103;28;20122;-72
2022/06/07 03:12:07;;;;;;;3.20;0.82;;;17.00;99.90;;;;;;5091491;28;20020;-74
2022/06/07 03:14:33;;;;;;;2.47;0.90;;;17.00;99.90;;;;;;5093380;28;20173;-73
2022/06/07 03:16:59;;;;;;;1.85;0.85;;;17.00;99.90;;;;;;5075073;28;20028;-73
2022/06/07 03:19:28;;;;;;;1.35;0.70;;;17.00;99.90;;;;;;5092743;28;20024;-73
2022/06/07 03:21:54;;;;;;;1.67;0.90;;;17.00;99.90;;;;;;5092999;28;20558;-74
2022/06/07 03:24:20;;;;;;;2.65;0.90;;;17.00;99.90;;;;;;5092198;28;20190;-74
2022/06/07 03:26:46;;;;;;;0.90;0.80;;;17.10;99.90;;;;;;5093220;28;20380;-73
2022/06/07 03:29:11;;;;;;;1.90;0.75;;;17.10;99.90;;;;;;5074387;28;20487;-74
2022/06/07 03:31:37;;;;;;;1.02;0.70;;;17.10;99.90;;;;;;5092722;28;20073;-73
2022/06/07 03:34:03;;;;;;;2.25;0.90;;;17.00;99.90;;;;;;5074872;28;20465;-73
2022/06/07 03:36:29;;;;;;;2.08;0.88;;;17.10;99.90;;;;;;5074542;28;20024;-73
2022/06/07 03:38:58;;;;;;;0.75;0.70;;;17.10;99.90;;;;;;5074793;28;20085;-73
2022/06/07 03:41:27;;;;;;;1.58;0.73;;;17.10;99.90;;;;;;5074000;28;20024;-73
2022/06/07 03:43:53;;;;;;;2.72;0.90;;;17.10;99.90;;;;;;5092814;28;20039;-74
2022/06/07 03:46:24;;;;;;;2.00;0.50;;;17.00;99.90;;;;;;5074168;28;20384;-73
2022/06/07 03:48:50;;;;;;;2.42;0.75;;;17.00;99.90;;;;;;5092889;28;20503;-74
2022/06/07 03:51:19;;;;;;;1.63;1.33;;;17.00;99.90;;;;;;5074110;28;20024;-74
2022/06/07 03:53:45;;;;;;;1.95;0.70;;;17.00;99.90;;;;;;5092881;28;20028;-74
2022/06/07 03:56:11;;;;;;;2.63;0.60;;;17.00;99.90;;;;;;5091958;28;20078;-74
2022/06/07 03:58:38;;;;;;;0.80;0.80;;;17.00;99.90;;;;;;5092701;28;20414;-74
2022/06/07 04:01:06;;;;;;;1.55;1.00;;;17.00;99.90;;;;;;5074684;28;20115;-73
2022/06/07 04:03:32;;;;;;;4.35;0.80;;;17.00;99.90;;;;;;5092783;28;20024;-73
2022/06/07 04:05:58;;;;;;;1.05;0.75;;;17.00;99.90;;;;;;5092594;28;20073;-73
2022/06/07 04:08:25;;;;;;;4.10;1.45;;;17.00;99.90;;;;;;5073852;28;20046;-73
2022/06/07 04:10:53;;;;;;;1.00;0.90;;;17.00;99.90;;;;;;5092575;28;20028;-73
2022/06/07 04:13:21;;;;;;;2.25;0.90;;;16.90;99.90;;;;;;5095017;28;20047;-74
2022/06/07 04:15:47;;;;;;;2.60;0.90;;;16.90;99.90;;;;;;5096757;28;20111;-73
2022/06/07 04:18:13;;;;;;;2.80;1.10;;;16.90;99.90;;;;;;5096110;28;20024;-73
2022/06/07 04:20:39;;;;;;;4.40;1.00;;;16.80;99.90;;;;;;5078335;28;20494;-74
2022/06/07 04:23:06;;;;;;;4.63;1.30;;;16.80;99.90;;;;;;5096674;28;20073;-73
2022/06/07 04:25:36;;;;;;;2.65;1.00;;;16.80;99.90;;;;;;5078289;28;20052;-73
2022/06/07 04:28:03;;;;;;;2.15;1.00;;;16.80;99.90;;;;;;5078357;28;20102;-73
2022/06/07 04:30:30;;;;;;;2.70;1.13;;;16.90;99.90;;;;;;5077608;28;20028;-73
2022/06/07 04:32:56;;;;;;;1.23;1.13;;;16.90;99.90;;;;;;5096088;28;20492;-73
2022/06/07 04:35:22;;;;;;;1.02;0.88;;;16.90;99.90;;;;;;5077444;28;20055;-73
2022/06/07 04:37:48;;;;;;;1.80;1.10;;;16.90;99.90;;;;;;5096355;28;20370;-73
2022/06/07 04:40:15;;;;;;;2.00;1.00;;;16.90;99.90;;;;;;5095639;28;20121;-73
2022/06/07 04:42:43;;;;;;;2.65;1.00;;;16.90;99.90;;;;;;5077862;28;20024;-74
2022/06/07 04:45:11;;;;;;;4.15;1.50;;;16.80;99.90;;;;;;5095480;28;20028;-75
2022/06/07 04:47:37;;;;;;;1.75;1.10;;;16.80;99.90;;;;;;5078255;28;20055;-75
2022/06/07 04:50:05;;;;;;;1.60;1.45;;;16.80;99.90;;;;;;5077781;28;20552;-73
2022/06/07 04:52:30;;;;;;;1.52;1.30;;;16.80;99.90;;;;;;5093959;28;20031;-73
2022/06/07 04:54:56;;;;;;;4.50;1.40;;;16.80;99.90;;;;;;5077746;28;20525;-73
2022/06/07 04:57:22;;;;;;;3.10;1.55;;;16.80;99.90;;;;;;5095254;28;20024;-74
2022/06/07 04:59:47;;;;;;;2.70;1.50;;;16.80;99.90;;;;;;5095794;28;20028;-73
2022/06/07 05:02:13;;;;;;;3.65;1.58;;;16.80;99.90;;;;;;5077149;28;20062;-74
2022/06/07 05:04:39;;;;;;;2.90;1.50;;;16.80;99.90;;;;;;5077532;28;20389;-73
2022/06/07 05:07:04;;;;;;;1.88;1.45;;;16.80;99.90;;;;;;5095785;28;20020;-73
2022/06/07 05:09:30;;;;;;;3.40;1.88;;;16.80;99.90;;;;;;5077020;28;20123;-73
2022/06/07 05:11:56;;;;;;;3.05;1.70;;;16.70;99.90;;;;;;5095654;28;20136;-73
2022/06/07 05:14:23;;;;;;;5.20;1.85;;;16.70;99.90;;;;;;5094532;28;20052;-74
2022/06/07 05:16:50;;;;;;;3.30;1.67;;;16.70;99.90;;;;;;5095405;28;20089;-73
2022/06/07 05:19:17;;;;;;;4.53;1.65;;;16.70;99.90;;;;;;5076779;28;20028;-73
2022/06/07 05:21:43;;;;;;;3.17;1.83;;;16.70;99.90;;;;;;5077172;28;20051;-73
2022/06/07 05:24:09;;;;;;;2.88;1.80;;;16.80;99.90;;;;;;5094832;28;20084;-73
2022/06/07 05:26:46;;;;;;;2.42;1.60;;;16.80;99.90;;;;;;5076728;28;20043;-73
2022/06/07 05:29:25;;;;;;;3.17;1.75;;;16.80;99.90;;;;;;5076693;28;20035;-74
2022/06/07 05:31:51;;;;;;;2.63;1.52;;;16.90;99.90;;;;;;5095174;28;20103;-73
2022/06/07 05:34:17;;;;;;;5.68;1.52;;;16.90;99.90;;;;;;5094634;28;20055;-74
2022/06/07 05:36:42;;;;;;;4.43;1.60;;;16.90;99.90;;;;;;5077195;28;20490;-74
2022/06/07 05:39:24;;;;;;;1.75;1.55;;;17.00;99.90;;;;;;5095084;28;20028;-73
2022/06/07 05:41:51;;;;;;;2.80;1.33;;;17.00;99.90;;;;;;5077015;28;20020;-73
2022/06/07 05:44:18;;;;;;;2.85;1.40;;;17.00;99.90;;;;;;5076345;28;20413;-74
2022/06/07 05:46:45;;;;;;;1.77;1.35;;;17.10;99.90;;;;;;5076778;28;20035;-73
2022/06/07 05:49:11;;;;;;;2.45;1.17;;;17.10;99.90;;;;;;5076688;28;20403;-73
2022/06/07 05:51:38;;;;;;;2.90;1.63;;;17.10;99.90;;;;;;5094883;28;20024;-73
2022/06/07 05:54:05;;;;;;;5.57;1.85;;;17.20;99.90;;;;;;5076892;28;20028;-73
2022/06/07 05:56:31;;;;;;;5.07;1.20;;;17.20;99.90;;;;;;5075594;28;20041;-73
2022/06/07 05:58:57;;;;;;;2.63;1.13;;;17.30;99.90;;;;;;5076714;28;20116;-73
2022/06/07 06:01:23;;;;;;;2.88;1.10;;;17.30;99.90;;;;;;5075978;28;20053;-73
2022/06/07 06:03:48;;;;;;;3.42;1.20;;;17.30;99.90;;;;;;5094279;28;20023;-73
2022/06/07 06:06:15;;;;;;;4.00;1.10;;;17.30;99.90;;;;;;5075857;28;20032;-73
2022/06/07 06:11:27;;;;;;;3.55;1.65;;;17.50;99.90;;;;;;5093664;28;20064;-73
2022/06/07 06:13:53;;;;;;;4.35;1.52;;;17.60;99.90;;;;;;5098342;28;20044;-73
2022/06/07 06:16:20;;;;;;;3.53;1.45;;;17.60;99.90;;;;;;5092601;28;20035;-74
2022/06/07 06:18:47;;;;;;;2.88;1.90;;;17.60;99.90;;;;;;5093086;28;20028;-74
2022/06/07 06:21:14;;;;;;;2.92;1.70;;;17.60;99.90;;;;;;5094203;28;20024;-75
2022/06/07 06:23:39;;;;;;;2.83;1.45;;;17.60;99.90;;;;;;5092888;28;20115;-74
2022/06/07 06:26:10;;;;;;;4.13;1.42;;;17.50;99.90;;;;;;5094104;28;20166;-74
2022/06/07 06:28:37;;;;;;;3.10;1.55;;;17.50;99.90;;;;;;5109351;28;20094;-74
2022/06/07 06:31:05;;;;;;;4.95;1.55;;;17.50;99.90;;;;;;5109735;28;20030;-74
2022/06/07 06:33:31;;;;;;;2.38;1.52;;;17.50;99.90;;;;;;5109220;28;20028;-74
2022/06/07 06:35:57;;;;;;;1.55;1.15;;;17.40;99.90;;;;;;5108968;28;20035;-74
2022/06/07 06:38:23;;;;;;;2.55;1.58;;;17.40;99.90;;;;;;5093421;28;20028;-74
2022/06/07 06:40:49;;;;;;;2.85;1.45;;;17.40;99.90;;;;;;5092634;28;20035;-73
2022/06/07 06:43:16;;;;;;;2.72;1.40;;;17.50;99.90;;;;;;5093326;28;20092;-75
2022/06/07 06:45:43;;;;;;;3.45;1.50;;;17.50;99.90;;;;;;5093922;28;20028;-73
2022/06/07 06:48:10;;;;;;;4.00;1.42;;;17.50;99.90;;;;;;5093571;28;20444;-73
2022/06/07 06:50:38;;;;;;;2.13;1.40;;;17.60;99.90;;;;;;5092854;28;20427;-73
2022/06/07 06:53:04;;;;;;;1.92;1.48;;;17.60;99.90;;;;;;5093578;28;20035;-73
2022/06/07 06:55:30;;;;;;;2.03;1.58;;;17.50;99.90;;;;;;5091802;28;20032;-73
2022/06/07 06:57:56;;;;;;;2.00;1.50;;;17.50;99.90;;;;;;5093511;28;20020;-73
2022/06/07 07:00:22;;;;;;;2.65;1.55;;;17.50;99.90;;;;;;5092981;28;20081;-73
2022/06/07 07:02:48;;;;;;;1.95;1.73;;;17.50;99.90;;;;;;5093540;28;20024;-73
2022/06/07 07:05:16;;;;;;;2.22;1.60;;;17.60;99.90;;;;;;5093431;28;20031;-73
2022/06/07 07:07:42;;;;;;;3.17;1.73;;;17.70;99.90;;;;;;5093366;28;20028;-73
2022/06/07 07:10:09;;;;;;;4.57;1.80;;;18.00;99.90;;;;;;5091803;28;20027;-73
2022/06/07 07:12:35;;;;;;;3.33;1.73;;;18.10;99.90;;;;;;5099860;28;20510;-73
2022/06/07 07:15:02;;;;;;;5.65;2.33;;;18.20;99.90;;;;;;5111942;28;20142;-73
2022/06/07 07:17:28;;;;;;;2.78;1.83;;;18.20;99.90;;;;;;5112861;28;20057;-73
2022/06/07 07:19:55;;;;;;;3.17;1.75;;;18.20;99.90;;;;;;5129333;27;20456;-73
2022/06/07 07:22:22;;;;;;;3.25;1.70;;;18.20;99.90;;;;;;5112996;28;20027;-73
2022/06/07 07:24:48;;;;;;;2.95;2.20;;;18.20;99.90;;;;;;5112270;28;20038;-73
2022/06/07 07:27:15;;;;;;;5.35;1.80;;;18.30;99.90;;;;;;5093897;28;20047;-73
2022/06/07 07:29:41;;;;;;;2.47;1.48;;;18.40;99.90;;;;;;5072038;28;20528;-73
2022/06/07 07:32:06;;;;;;;2.85;2.30;;;18.50;99.90;;;;;;5074625;28;20033;-72
2022/06/07 07:34:32;;;;;;;3.13;1.50;;;18.70;99.90;;;;;;5072207;28;20028;-72
2022/06/07 07:36:58;;;;;;;2.25;1.48;;;18.70;99.90;;;;;;5081346;28;20038;-73
2022/06/07 07:39:25;;;;;;;1.95;1.60;;;18.80;99.90;;;;;;5090882;28;20035;-72
2022/06/07 07:41:52;;;;;;;2.35;1.90;;;18.90;99.90;;;;;;5091245;28;20032;-73
2022/06/07 07:44:19;;;;;;;2.47;1.90;;;19.00;99.90;;;;;;5092548;28;20381;-75
2022/06/07 07:46:47;;;;;;;4.15;1.67;;;19.00;99.90;;;;;;5090555;28;20024;-73
2022/06/07 07:49:18;;;;;;;3.17;1.98;;;19.00;99.90;;;;;;5092774;28;20020;-72
2022/06/07 07:51:47;;;;;;;7.00;1.70;;;19.20;99.90;;;;;;5091610;28;20024;-72
2022/06/07 07:54:17;;;;;;;3.35;1.77;;;19.20;99.90;;;;;;5093856;28;20028;-73
2022/06/07 07:56:43;;;;;;;4.72;1.63;;;19.20;99.90;;;;;;5099320;28;20062;-72
2022/06/07 07:59:12;;;;;;;2.13;1.92;;;19.20;99.90;;;;;;5106512;28;20044;-72
2022/06/07 08:01:39;;;;;;;4.25;1.65;;;19.10;99.90;;;;;;5079547;28;20358;-73
2022/06/07 08:04:05;;;;;;;3.97;1.80;;;19.10;99.90;;;;;;5084148;28;20115;-73
2022/06/07 08:06:31;;;;;;;5.07;2.10;;;19.20;99.90;;;;;;5083064;28;20541;-72
2022/06/07 08:09:00;;;;;;;1.98;1.70;;;19.20;99.90;;;;;;5099419;28;20032;-72
2022/06/07 08:11:30;;;;;;;3.28;2.03;;;19.30;99.90;;;;;;5096225;28;20020;-73
2022/06/07 08:13:56;;;;;;;5.10;1.98;;;19.30;99.90;;;;;;5079453;28;20126;-72
2022/06/07 08:16:23;;;;;;;2.50;1.50;;;19.20;99.90;;;;;;5085976;28;20032;-73
2022/06/07 08:18:48;;;;;;;5.55;2.67;;;19.30;99.90;;;;;;5081094;28;20074;-72
2022/06/07 08:21:25;;;;;;;7.22;2.25;;;19.30;99.90;;;;;;5088682;28;20518;-72
2022/06/07 08:23:53;;;;;;;8.63;3.78;;;19.20;99.90;;;;;;5080637;28;20032;-73
2022/06/07 08:26:19;;;;;;;10.27;3.97;;;19.20;99.90;;;;;;5087915;28;20105;-72
2022/06/07 08:28:45;;;;;;;3.38;2.00;;;19.20;99.90;;;;;;5080441;28;20068;-72
2022/06/07 08:31:16;;;;;;;3.35;2.13;;;19.20;99.90;;;;;;5083517;28;20020;-72
2022/06/07 08:39:12;;;;;;;2.85;1.60;;;19.30;99.90;;;;;;5081666;28;20059;-74
2022/06/07 08:41:44;;;;;;;1.33;1.13;;;19.30;99.90;;;;;;5075060;28;20497;-75
2022/06/07 08:44:21;;;;;;;4.68;1.40;;;19.30;99.90;;;;;;5070868;28;20055;-75
2022/06/07 08:46:47;;;;;;;2.47;1.88;;;19.40;99.90;;;;;;5071582;28;20028;-75
2022/06/07 08:49:13;;;;;;;4.30;1.98;;;19.40;99.90;;;;;;5093484;28;20032;-74
2022/06/07 08:52:07;;;;;;;2.95;1.40;;;19.40;99.90;;;;;;5110488;28;20017;-75
2022/06/07 08:54:37;;;;;;;5.40;1.40;;;19.40;99.90;;;;;;5071383;28;20075;-75
2022/06/07 08:57:25;;;;;;;2.47;1.15;;;19.40;99.90;;;;;;5087954;28;20094;-75
2022/06/07 09:00:06;;;;;;;1.50;0.90;;;19.40;99.90;;;;;;5075964;28;20032;-75
2022/06/07 09:02:46;;;;;;;3.17;1.00;;;19.50;99.90;;;;;;5075416;28;20036;-75
2022/06/07 09:05:16;;;;;;;2.97;1.10;;;19.40;99.90;;;;;;5078317;28;20036;-76
2022/06/07 09:07:43;;;;;;;2.45;1.05;;;19.40;99.90;;;;;;5095113;28;20024;-75
2022/06/07 09:13:01;;;;;;;3.60;0.98;;;19.50;99.90;;;;;;5095423;28;20077;-76
2022/06/07 09:15:30;;;;;;;0.90;0.77;;;19.50;99.90;;;;;;5094879;28;20027;-78
2022/06/07 09:17:58;;;;;;;1.40;0.80;;;19.50;99.90;;;;;;5077518;28;20032;-78
2022/06/07 09:20:32;;;;;;;2.63;0.70;;;19.50;99.90;;;;;;5094879;28;20028;-75
2022/06/07 09:23:01;;;;;;;4.13;1.10;;;19.50;99.70;;;;;;5089804;28;20039;-75
2022/06/07 09:25:35;;;;;;;3.33;0.60;;;19.60;99.00;;;;;;5094928;28;20094;-76
2022/06/07 09:28:04;;;;;;;3.83;0.90;;;19.60;99.00;;;;;;5092663;28;20308;-73
2022/06/07 09:30:37;;;;;;;1.02;0.52;;;19.70;98.90;;;;;;5076225;28;20479;-74
2022/06/07 09:33:22;;;;;;;1.95;0.80;;;19.90;99.20;;;;;;5076693;28;20115;-74
2022/06/07 09:35:50;;;;;;;3.80;0.77;;;19.90;98.80;;;;;;5095851;28;20469;-74
2022/06/07 09:38:34;;;;;;;1.98;0.60;;;19.80;98.80;;;;;;5101157;28;20538;-74
2022/06/07 09:41:40;;;;;;;2.08;0.70;;;19.90;98.40;;;;;;5083914;28;20028;-74
2022/06/07 09:44:14;;;;;;;1.42;0.70;;;20.00;97.90;;;;;;5094514;28;20044;-73
2022/06/07 09:46:43;;;;;;;2.70;0.75;;;20.10;99.00;;;;;;5075917;28;20464;-72
2022/06/07 09:49:54;;;;;;;2.05;0.60;;;20.10;98.00;;;;;;5076332;28;20056;-72
2022/06/07 09:52:25;;;;;;;1.30;0.60;;;20.20;97.40;;;;;;4991339;28;20499;-72
2022/06/07 09:54:59;;;;;;;2.83;0.50;;;20.20;97.90;;;;;;5060641;28;20039;-72
2022/06/07 09:57:34;;;;;;;1.58;0.70;;;20.20;97.50;;;;;;5093640;28;20476;-73
2022/06/07 10:00:18;;;;;;;3.45;0.60;;;20.20;97.40;;;;;;5076065;28;20119;-72
2022/06/07 10:02:47;;;;;;;5.55;0.80;;;20.40;97.90;;;;;;5080648;28;20505;-72
2022/06/07 10:05:42;;;;;;;0.90;0.50;;;20.40;97.30;;;;;;5093734;28;20358;-72
2022/06/07 10:08:56;;;;;;;2.65;1.10;;;20.40;97.10;;;;;;5090593;28;20028;-74
2022/06/07 10:11:48;;;;;;;1.70;0.50;;;20.50;96.40;;;;;;5073586;28;20040;-74
2022/06/07 10:14:38;;;;;;;0.93;0.50;;;20.50;95.70;;;;;;5087660;28;20119;-74
2022/06/07 10:17:32;;;;;;;1.20;1.10;;;20.70;95.20;;;;;;5074875;28;20486;-74
2022/06/07 10:20:03;;;;;;;3.10;0.60;;;20.80;95.60;;;;;;5089914;28;20040;-73
2022/06/07 10:22:34;;;;;;;2.78;0.50;;;20.80;95.50;;;;;;5073812;28;20024;-76
2022/06/07 10:25:18;;;;;;;1.85;0.60;;;20.90;96.30;;;;;;5099482;28;20035;-76
2022/06/07 10:28:02;;;;;;;1.90;0.60;;;21.00;95.40;;;;;;5100344;28;20509;-75
2022/06/07 10:30:33;;;;;;;0.90;0.40;;;21.00;95.50;;;;;;5101541;28;20024;-75
2022/06/07 10:33:08;;;;;;;0.65;0.50;;;21.20;95.40;;;;;;5087833;28;20107;-74
2022/06/07 10:35:41;;;;;;;6.00;1.15;;;21.40;95.00;;;;;;5084257;28;20024;-74
2022/06/07 10:38:29;;;;;;;2.85;0.75;;;21.40;94.10;;;;;;5084729;28;20457;-75
2022/06/07 10:41:32;;;;;;;5.18;2.00;;;21.70;94.20;;;;;;5098738;28;20481;-74
2022/06/07 10:44:22;;;;;;;7.03;2.13;;;21.70;93.50;;;;;;5103156;28;20024;-74
2022/06/07 10:46:48;;;;;;;8.57;3.15;;;21.70;93.70;;;;;;5101697;28;20027;-74
2022/06/07 10:49:39;;;;;;;6.05;1.33;;;21.70;93.70;;;;;;5084286;28;20024;-73
2022/06/07 10:52:31;;;;;;;10.07;1.27;;;21.60;93.40;;;;;;5094345;28;20381;-75
2022/06/07 10:55:13;;;;;;;1.98;1.00;;;21.70;93.40;;;;;;5096832;28;20028;-75
2022/06/07 10:57:57;;;;;;;1.13;0.85;;;21.70;93.30;;;;;;5065866;28;20032;-74
2022/06/07 11:00:36;;;;;;;0.95;0.85;;;21.70;93.50;;;;;;5083487;28;20051;-75
2022/06/07 11:03:09;;;;;;;1.65;1.30;;;21.70;93.80;;;;;;5080503;28;20081;-75
2022/06/07 11:11:20;;;;;;;2.67;1.38;;;21.40;94.20;;;;;;5081165;28;20595;-74
2022/06/07 11:14:27;;;;;;;1.80;1.13;;;21.50;94.50;;;;;;5084132;28;20051;-75
2022/06/07 11:17:46;;;;;;;4.25;1.20;;;21.60;94.50;;;;;;5087476;28;20028;-75
2022/06/07 11:20:23;;;;;;;5.38;1.10;;;21.70;93.80;;;;;;5041549;28;20064;-75
2022/06/07 11:23:14;;;;;;;4.55;1.98;;;21.80;94.70;;;;;;5080098;28;20036;-77
2022/06/07 11:25:43;;;;;;;3.50;1.30;;;21.90;94.60;;;;;;5084910;28;20035;-76
2022/06/07 11:28:17;;;;;;;3.80;0.90;;;21.90;95.10;;;;;;5084653;28;20035;-75
2022/06/07 11:30:46;;;;;;;1.48;0.77;;;21.80;94.60;;;;;;5080266;28;20082;-76
2022/06/07 11:33:42;;;;;;;1.45;0.80;;;21.80;94.80;;;;;;5091932;28;20028;-75
2022/06/07 11:36:31;;;;;;;1.45;0.90;;;21.90;94.10;;;;;;5093558;28;20035;-74
2022/06/07 11:39:03;;;;;;;2.05;0.68;;;22.00;93.60;;;;;;5088892;28;20107;-74
2022/06/07 11:41:38;;;;;;;2.30;0.90;;;22.10;93.70;;;;;;5091908;28;20026;-75
2022/06/07 11:44:10;;;;;;;1.30;1.15;;;22.20;93.30;;;;;;5091300;28;20046;-74
2022/06/07 11:46:45;;;;;;;3.05;1.20;;;22.00;93.30;;;;;;5092928;28;20457;-73
2022/06/07 11:52:11;;;;;;;1.98;0.95;;;21.90;94.70;;;;;;5080926;28;20024;-74
2022/06/07 11:54:48;;;;;;;2.03;0.80;;;22.10;93.60;;;;;;5099817;28;20035;-74
2022/06/07 11:57:38;;;;;;;1.52;0.88;;;22.20;93.30;;;;;;5080877;28;20035;-75
2022/06/07 12:00:19;;;;;;;1.67;1.00;;;22.40;92.30;;;;;;5090610;28;20548;-75
2022/06/07 12:02:56;;;;;;;3.22;0.73;;;22.50;92.00;;;;;;5084875;28;20032;-74
2022/06/07 12:05:52;;;;;;;1.63;0.90;;;22.60;92.70;;;;;;5084195;28;20473;-75
2022/06/07 12:08:39;;;;;;;1.65;1.10;;;22.70;92.70;;;;;;5088720;28;20047;-74
2022/06/07 12:11:20;;;;;;;1.35;1.00;;;22.70;92.70;;;;;;5091562;28;20095;-74
2022/06/07 12:13:50;;;;;;;2.03;1.10;;;22.70;92.70;;;;;;5089236;28;20446;-75
2022/06/07 12:16:35;;;;;;;1.40;1.13;;;22.80;93.10;;;;;;5091917;28;20043;-75
2022/06/07 12:19:04;;;;;;;2.13;0.75;;;22.80;92.60;;;;;;5090930;28;20024;-77
2022/06/07 12:21:41;;;;;;;2.97;0.60;;;22.90;92.30;;;;;;5068928;28;20388;-74
2022/06/07 12:24:17;;;;;;;2.75;0.50;;;23.00;92.10;;;;;;5061172;28;20033;-75
2022/06/07 12:26:47;;;;;;;3.67;0.60;;;23.00;92.00;;;;;;5052265;28;20056;-76
2022/06/07 12:29:28;;;;;;;1.38;0.57;;;23.00;91.50;;;;;;5069695;28;20025;-75
2022/06/07 12:32:06;;;;;;;2.55;0.52;;;23.00;91.60;;;;;;5068789;28;20040;-76
2022/06/07 12:34:34;;;;;;;1.20;0.63;;;22.90;91.70;;;;;;5072705;28;20111;-76
2022/06/07 12:37:23;;;;;;;0.70;0.70;;;22.90;91.70;;;;;;5072784;28;20097;-75
2022/06/07 12:39:56;;;;;;;1.23;0.50;;;23.00;91.00;;;;;;5067138;28;20556;-76
2022/06/07 12:42:25;;;;;;;0.40;0.40;;;23.10;90.70;;;;;;5043310;28;20075;-74
2022/06/07 12:44:57;;;;;;;4.20;0.32;;;23.30;90.10;;;;;;5049632;28;20434;-77
2022/06/07 12:47:31;;;;;;;2.00;0.60;;;23.60;88.70;;;;;;5036651;28;20456;-75
2022/06/07 12:49:58;;;;;;;0.30;0.30;;;23.50;88.10;;;;;;5048749;28;20028;-76
2022/06/07 12:52:26;;;;;;;3.45;0.55;;;23.50;89.70;;;;;;5070958;28;20032;-76
2022/06/07 12:55:00;;;;;;;4.20;0.45;;;23.50;90.00;;;;;;5093624;28;20157;-75
2022/06/07 12:57:44;;;;;;;0.85;0.63;;;23.50;90.00;;;;;;5111841;28;20392;-76
2022/06/07 13:00:13;;;;;;;2.40;0.60;;;23.70;88.90;;;;;;5078074;28;20602;-76
2022/06/07 13:02:48;;;;;;;1.25;0.30;;;23.80;88.70;;;;;;5093791;28;20498;-76
2022/06/07 13:05:27;;;;;;;0.55;0.40;;;23.80;84.90;;;;;;5095743;28;20024;-76
2022/06/07 13:07:56;;;;;;;0.55;0.40;;;23.80;85.00;;;;;;5094455;28;20032;-75
2022/06/07 13:10:26;;;;;;;0.95;0.60;;;23.70;86.10;;;;;;5092709;28;20488;-76
2022/06/07 13:12:54;;;;;;;2.08;0.50;;;23.70;86.50;;;;;;5080839;28;20393;-76
2022/06/07 13:15:23;;;;;;;0.50;0.50;;;23.80;86.60;;;;;;5073473;28;20029;-77
2022/06/07 13:18:13;;;;;;;1.70;0.50;;;23.80;87.60;;;;;;5072956;28;20182;-76
2022/06/07 13:20:46;;;;;;;1.25;0.55;;;24.00;86.30;;;;;;5076579;28;20405;-75
2022/06/07 13:23:29;;;;;;;3.35;0.70;;;24.40;88.60;;;;;;5092888;28;20040;-75
2022/06/07 13:26:20;;;;;;;1.15;0.35;;;24.50;86.90;;;;;;5093954;28;20032;-74
2022/06/07 13:28:48;;;;;;;4.82;0.60;;;24.80;85.60;;;;;;5076313;28;20028;-75
2022/06/07 13:31:41;;;;;;;1.90;0.57;;;25.20;83.30;;;;;;5076725;28;20051;-74
2022/06/07 13:34:29;;;;;;;1.05;0.35;;;25.30;81.20;;;;;;5070266;28;20026;-75